sensor_id;sensor_type;location;lat;lon;timestamp;pressure;altitude;pressure_sealevel;temperature;humidity
6464;BME280;3265;42.694;23.282;2023-04-21T00:02:06;94242.56;;;11.22;84.70
6464;BME280;3265;42.694;23.282;2023-04-21T00:04:34;94239.97;;;11.22;84.91
6464;BME280;3265;42.694;23.282;2023-04-21T00:07:01;94238.13;;;11.23;84.57
6464;BME280;3265;42.694;23.282;2023-04-21T00:09:28;94238.69;;;11.25;84.09
6464;BME280;3265;42.694;23.282;2023-04-21T00:12:12;94230.00;;;11.19;84.57
6464;BME280;3265;42.694;23.282;2023-04-21T00:14:39;94229.22;;;11.19;84.60
6464;BME280;3265;42.694;23.282;2023-04-21T00:17:06;94229.31;;;11.24;84.55
6464;BME280;3265;42.694;23.282;2023-04-21T00:19:32;94233.63;;;11.18;84.05
6464;BME280;3265;42.694;23.282;2023-04-21T00:22:01;94232.50;;;11.14;84.64
6464;BME280;3265;42.694;23.282;2023-04-21T00:24:28;94232.50;;;11.14;84.48
6464;BME280;3265;42.694;23.282;2023-04-21T00:26:55;94228.63;;;11.17;84.17
6464;BME280;3265;42.694;23.282;2023-04-21T00:29:22;94229.34;;;11.12;84.49
6464;BME280;3265;42.694;23.282;2023-04-21T00:31:49;94220.19;;;11.10;84.29
6464;BME280;3265;42.694;23.282;2023-04-21T00:34:15;94232.41;;;11.09;84.11
6464;BME280;3265;42.694;23.282;2023-04-21T00:36:42;94229.34;;;11.12;84.34
6464;BME280;3265;42.694;23.282;2023-04-21T00:39:10;94236.34;;;11.12;83.68
6464;BME280;3265;42.694;23.282;2023-04-21T00:41:37;94240.00;;;11.11;83.69
6464;BME280;3265;42.694;23.282;2023-04-21T00:44:06;94235.59;;;11.00;83.97
6464;BME280;3265;42.694;23.282;2023-04-21T00:46:34;94236.28;;;10.95;84.42
6464;BME280;3265;42.694;23.282;2023-04-21T00:49:03;94231.44;;;10.99;84.00
6464;BME280;3265;42.694;23.282;2023-04-21T00:51:32;94227.28;;;10.86;84.91
6464;BME280;3265;42.694;23.282;2023-04-21T00:54:01;94225.56;;;10.92;84.70
6464;BME280;3265;42.694;23.282;2023-04-21T00:56:30;94219.81;;;10.90;83.92
6464;BME280;3265;42.694;23.282;2023-04-21T00:58:59;94224.75;;;10.91;83.69
6464;BME280;3265;42.694;23.282;2023-04-21T01:01:27;94213.94;;;10.82;83.92
6464;BME280;3265;42.694;23.282;2023-04-21T01:03:56;94215.28;;;10.85;84.46
6464;BME280;3265;42.694;23.282;2023-04-21T01:06:24;94221.19;;;10.80;84.05
6464;BME280;3265;42.694;23.282;2023-04-21T01:08:51;94206.63;;;10.68;84.06
6464;BME280;3265;42.694;23.282;2023-04-21T01:11:18;94222.00;;;10.69;85.25
6464;BME280;3265;42.694;23.282;2023-04-21T01:13:47;94196.03;;;10.58;84.80
6464;BME280;3265;42.694;23.282;2023-04-21T01:16:15;94220.75;;;10.72;84.99
6464;BME280;3265;42.694;23.282;2023-04-21T01:18:42;94221.88;;;10.76;84.90
6464;BME280;3265;42.694;23.282;2023-04-21T01:21:11;94217.59;;;10.70;84.80
6464;BME280;3265;42.694;23.282;2023-04-21T01:23:40;94210.16;;;10.62;85.25
6464;BME280;3265;42.694;23.282;2023-04-21T01:26:07;94215.78;;;10.70;85.71
6464;BME280;3265;42.694;23.282;2023-04-21T01:28:34;94213.97;;;10.71;85.69
6464;BME280;3265;42.694;23.282;2023-04-21T01:31:01;94215.66;;;10.65;86.03
6464;BME280;3265;42.694;23.282;2023-04-21T01:33:28;94206.06;;;10.66;85.87
6464;BME280;3265;42.694;23.282;2023-04-21T01:35:54;94208.56;;;10.61;85.84
6464;BME280;3265;42.694;23.282;2023-04-21T01:38:21;94198.97;;;10.61;85.85
6464;BME280;3265;42.694;23.282;2023-04-21T01:40:52;94213.66;;;10.67;85.19
6464;BME280;3265;42.694;23.282;2023-04-21T01:43:21;94208.91;;;10.64;86.03
6464;BME280;3265;42.694;23.282;2023-04-21T01:45:49;94196.59;;;10.60;85.76
6464;BME280;3265;42.694;23.282;2023-04-21T01:48:16;94202.38;;;10.62;85.72
6464;BME280;3265;42.694;23.282;2023-04-21T01:50:43;94203.94;;;10.63;85.36
6464;BME280;3265;42.694;23.282;2023-04-21T01:53:10;94198.28;;;10.54;85.38
6464;BME280;3265;42.694;23.282;2023-04-21T01:55:37;94194.91;;;10.54;85.79
6464;BME280;3265;42.694;23.282;2023-04-21T01:58:05;94213.22;;;10.59;86.25
6464;BME280;3265;42.694;23.282;2023-04-21T02:00:31;94204.63;;;10.58;86.15
6464;BME280;3265;42.694;23.282;2023-04-21T02:02:58;94207.56;;;10.62;86.10
6464;BME280;3265;42.694;23.282;2023-04-21T02:05:25;94208.91;;;10.64;86.04
6464;BME280;3265;42.694;23.282;2023-04-21T02:07:52;94212.75;;;10.62;85.59
6464;BME280;3265;42.694;23.282;2023-04-21T02:10:19;94212.19;;;10.60;86.29
6464;BME280;3265;42.694;23.282;2023-04-21T02:12:45;94205.09;;;10.55;86.27
6464;BME280;3265;42.694;23.282;2023-04-21T02:15:14;94206.63;;;10.56;86.66
6464;BME280;3265;42.694;23.282;2023-04-21T02:17:40;94201.44;;;10.56;85.86
6464;BME280;3265;42.694;23.282;2023-04-21T02:20:10;94209.38;;;10.61;86.23
6464;BME280;3265;42.694;23.282;2023-04-21T02:22:37;94201.22;;;10.58;86.44
6464;BME280;3265;42.694;23.282;2023-04-21T02:25:05;94205.44;;;10.59;86.07
6464;BME280;3265;42.694;23.282;2023-04-21T02:27:32;94209.59;;;10.60;85.99
6464;BME280;3265;42.694;23.282;2023-04-21T02:29:58;94204.28;;;10.55;86.73
6464;BME280;3265;42.694;23.282;2023-04-21T02:32:27;94205.88;;;10.56;86.05
6464;BME280;3265;42.694;23.282;2023-04-21T02:34:53;94207.00;;;10.48;86.58
6464;BME280;3265;42.694;23.282;2023-04-21T02:37:20;94202.16;;;10.52;87.17
6464;BME280;3265;42.694;23.282;2023-04-21T02:39:47;94207.78;;;10.49;87.27
6464;BME280;3265;42.694;23.282;2023-04-21T02:42:14;94206.63;;;10.56;86.87
6464;BME280;3265;42.694;23.282;2023-04-21T02:44:40;94205.19;;;10.60;87.56
6464;BME280;3265;42.694;23.282;2023-04-21T02:47:08;94208.22;;;10.69;87.39
6464;BME280;3265;42.694;23.282;2023-04-21T02:49:40;94202.34;;;10.73;87.53
6464;BME280;3265;42.694;23.282;2023-04-21T02:52:07;94209.91;;;10.75;86.96
6464;BME280;3265;42.694;23.282;2023-04-21T02:54:34;94212.44;;;10.47;87.74
6464;BME280;3265;42.694;23.282;2023-04-21T02:57:00;94209.59;;;10.48;87.88
6464;BME280;3265;42.694;23.282;2023-04-21T02:59:27;94211.09;;;10.44;88.31
6464;BME280;3265;42.694;23.282;2023-04-21T03:01:54;94210.19;;;10.50;88.47
6464;BME280;3265;42.694;23.282;2023-04-21T03:04:21;94211.28;;;10.54;88.94
6464;BME280;3265;42.694;23.282;2023-04-21T03:06:50;94207.06;;;10.65;88.41
6464;BME280;3265;42.694;23.282;2023-04-21T03:09:16;94209.22;;;10.68;87.92
6464;BME280;3265;42.694;23.282;2023-04-21T03:11:43;94209.00;;;10.69;88.22
6464;BME280;3265;42.694;23.282;2023-04-21T03:14:10;94208.56;;;10.72;87.99
6464;BME280;3265;42.694;23.282;2023-04-21T03:16:37;94213.75;;;10.72;87.91
6464;BME280;3265;42.694;23.282;2023-04-21T03:19:04;94212.50;;;10.75;87.98
6464;BME280;3265;42.694;23.282;2023-04-21T03:21:31;94213.97;;;10.71;87.83
6464;BME280;3265;42.694;23.282;2023-04-21T03:23:59;94220.78;;;10.60;88.54
6464;BME280;3265;42.694;23.282;2023-04-21T03:26:25;94213.00;;;10.49;88.49
6464;BME280;3265;42.694;23.282;2023-04-21T03:28:52;94213.00;;;10.49;88.35
6464;BME280;3265;42.694;23.282;2023-04-21T03:31:19;94216.84;;;10.46;89.40
6464;BME280;3265;42.694;23.282;2023-04-21T03:33:46;94209.94;;;10.52;88.67
6464;BME280;3265;42.694;23.282;2023-04-21T03:36:13;94223.94;;;10.51;88.40
6464;BME280;3265;42.694;23.282;2023-04-21T03:38:39;94218.63;;;10.46;88.46
6464;BME280;3265;42.694;23.282;2023-04-21T03:41:07;94225.53;;;10.52;88.36
6464;BME280;3265;42.694;23.282;2023-04-21T03:43:34;94217.38;;;10.60;88.62
6464;BME280;3265;42.694;23.282;2023-04-21T03:46:01;94219.19;;;10.59;88.45
6464;BME280;3265;42.694;23.282;2023-04-21T03:48:28;94228.66;;;10.65;88.12
6464;BME280;3265;42.694;23.282;2023-04-21T03:50:56;94226.97;;;10.71;87.53
6464;BME280;3265;42.694;23.282;2023-04-21T03:53:23;94232.16;;;10.71;87.53
6464;BME280;3265;42.694;23.282;2023-04-21T03:55:50;94227.09;;;10.64;87.75
6464;BME280;3265;42.694;23.282;2023-04-21T03:58:18;94225.16;;;10.71;87.58
6464;BME280;3265;42.694;23.282;2023-04-21T04:00:45;94235.34;;;10.73;87.21
6464;BME280;3265;42.694;23.282;2023-04-21T04:03:11;94238.03;;;10.78;87.34
6464;BME280;3265;42.694;23.282;2023-04-21T04:05:38;94242.69;;;10.76;86.88
6464;BME280;3265;42.694;23.282;2023-04-21T04:08:05;94242.22;;;10.79;86.76
6464;BME280;3265;42.694;23.282;2023-04-21T04:10:32;94247.41;;;10.79;87.31
6464;BME280;3265;42.694;23.282;2023-04-21T04:12:58;94245.03;;;10.77;86.84
6464;BME280;3265;42.694;23.282;2023-04-21T04:15:26;94250.03;;;10.79;87.36
6464;BME280;3265;42.694;23.282;2023-04-21T04:17:53;94245.72;;;10.85;86.95
6464;BME280;3265;42.694;23.282;2023-04-21T04:20:20;94249.88;;;10.86;87.47
6464;BME280;3265;42.694;23.282;2023-04-21T04:22:47;94251.91;;;10.83;87.01
6464;BME280;3265;42.694;23.282;2023-04-21T04:25:14;94257.94;;;10.72;87.97
6464;BME280;3265;42.694;23.282;2023-04-21T04:27:41;94262.44;;;10.65;88.79
6464;BME280;3265;42.694;23.282;2023-04-21T04:30:09;94249.25;;;10.55;88.68
6464;BME280;3265;42.694;23.282;2023-04-21T04:32:37;94259.84;;;10.54;89.33
6464;BME280;3265;42.694;23.282;2023-04-21T04:35:06;94260.88;;;10.64;89.10
6464;BME280;3265;42.694;23.282;2023-04-21T04:37:35;94264.13;;;10.71;88.86
6464;BME280;3265;42.694;23.282;2023-04-21T04:40:02;94260.28;;;10.74;88.70
6464;BME280;3265;42.694;23.282;2023-04-21T04:42:31;94265.84;;;10.66;88.87
6464;BME280;3265;42.694;23.282;2023-04-21T04:44:59;94270.13;;;10.72;89.06
6464;BME280;3265;42.694;23.282;2023-04-21T04:47:26;94262.13;;;10.73;89.12
6464;BME280;3265;42.694;23.282;2023-04-21T04:49:54;94274.84;;;10.87;88.61
6464;BME280;3265;42.694;23.282;2023-04-21T04:52:21;94265.13;;;10.94;87.58
6464;BME280;3265;42.694;23.282;2023-04-21T04:54:48;94274.81;;;11.10;87.18
6464;BME280;3265;42.694;23.282;2023-04-21T04:57:14;94276.38;;;11.22;86.76
6464;BME280;3265;42.694;23.282;2023-04-21T04:59:41;94267.31;;;11.25;86.33
6464;BME280;3265;42.694;23.282;2023-04-21T05:02:08;94274.53;;;11.23;86.75
6464;BME280;3265;42.694;23.282;2023-04-21T05:04:35;94273.72;;;11.34;86.29
6464;BME280;3265;42.694;23.282;2023-04-21T05:07:04;94274.50;;;11.34;85.81
6464;BME280;3265;42.694;23.282;2023-04-21T05:09:32;94275.44;;;11.17;86.50
6464;BME280;3265;42.694;23.282;2023-04-21T05:11:58;94278.84;;;11.17;87.28
6464;BME280;3265;42.694;23.282;2023-04-21T05:14:25;94271.94;;;11.23;87.50
6464;BME280;3265;42.694;23.282;2023-04-21T05:16:52;94282.09;;;11.36;87.52
6464;BME280;3265;42.694;23.282;2023-04-21T05:19:19;94274.16;;;11.43;87.59
6464;BME280;3265;42.694;23.282;2023-04-21T05:21:46;94277.47;;;11.55;87.08
6464;BME280;3265;42.694;23.282;2023-04-21T05:24:14;94280.28;;;11.65;86.94
6464;BME280;3265;42.694;23.282;2023-04-21T05:26:41;94282.53;;;11.73;86.32
6464;BME280;3265;42.694;23.282;2023-04-21T05:29:08;94279.72;;;11.74;86.09
6464;BME280;3265;42.694;23.282;2023-04-21T05:31:35;94277.00;;;11.69;85.80
6464;BME280;3265;42.694;23.282;2023-04-21T05:34:03;94270.88;;;11.64;85.95
6464;BME280;3265;42.694;23.282;2023-04-21T05:36:30;94276.47;;;11.56;86.45
6464;BME280;3265;42.694;23.282;2023-04-21T05:38:57;94285.59;;;11.70;86.25
6464;BME280;3265;42.694;23.282;2023-04-21T05:41:25;94285.69;;;11.63;86.06
6464;BME280;3265;42.694;23.282;2023-04-21T05:43:51;94280.66;;;11.57;86.15
6464;BME280;3265;42.694;23.282;2023-04-21T05:46:18;94293.41;;;11.70;85.62
6464;BME280;3265;42.694;23.282;2023-04-21T05:48:45;94290.59;;;11.71;85.59
6464;BME280;3265;42.694;23.282;2023-04-21T05:51:13;94287.19;;;11.71;85.67
6464;BME280;3265;42.694;23.282;2023-04-21T05:53:41;94279.78;;;11.51;86.41
6464;BME280;3265;42.694;23.282;2023-04-21T05:56:08;94289.59;;;11.49;87.41
6464;BME280;3265;42.694;23.282;2023-04-21T05:58:37;94276.22;;;11.57;87.12
6464;BME280;3265;42.694;23.282;2023-04-21T06:01:04;94270.41;;;11.67;86.14
6464;BME280;3265;42.694;23.282;2023-04-21T06:03:32;94280.94;;;11.72;86.01
6464;BME280;3265;42.694;23.282;2023-04-21T06:05:59;94283.06;;;11.75;86.83
6464;BME280;3265;42.694;23.282;2023-04-21T06:08:26;94272.91;;;11.73;85.80
6464;BME280;3265;42.694;23.282;2023-04-21T06:10:53;94273.25;;;11.77;86.10
6464;BME280;3265;42.694;23.282;2023-04-21T06:13:22;94268.59;;;11.67;87.09
6464;BME280;3265;42.694;23.282;2023-04-21T06:15:50;94254.44;;;11.75;87.39
6464;BME280;3265;42.694;23.282;2023-04-21T06:18:17;94278.06;;;11.85;87.47
6464;BME280;3265;42.694;23.282;2023-04-21T06:20:49;94276.97;;;11.98;87.04
6464;BME280;3265;42.694;23.282;2023-04-21T06:23:15;94276.25;;;12.02;86.98
6464;BME280;3265;42.694;23.282;2023-04-21T06:25:42;94279.88;;;12.01;86.73
6464;BME280;3265;42.694;23.282;2023-04-21T06:28:09;94279.19;;;12.06;87.28
6464;BME280;3265;42.694;23.282;2023-04-21T06:30:36;94278.41;;;12.05;87.23
6464;BME280;3265;42.694;23.282;2023-04-21T06:33:04;94276.34;;;12.07;87.12
6464;BME280;3265;42.694;23.282;2023-04-21T06:35:31;94277.94;;;12.08;87.42
6464;BME280;3265;42.694;23.282;2023-04-21T06:37:58;94269.16;;;12.14;87.33
6464;BME280;3265;42.694;23.282;2023-04-21T06:40:25;94276.59;;;12.22;87.23
6464;BME280;3265;42.694;23.282;2023-04-21T06:42:52;94269.16;;;12.47;85.75
6464;BME280;3265;42.694;23.282;2023-04-21T06:45:19;94277.66;;;12.60;84.46
6464;BME280;3265;42.694;23.282;2023-04-21T06:47:46;94270.47;;;12.67;84.67
6464;BME280;3265;42.694;23.282;2023-04-21T06:50:14;94273.09;;;12.67;84.52
6464;BME280;3265;42.694;23.282;2023-04-21T06:52:41;94277.50;;;12.66;84.75
6464;BME280;3265;42.694;23.282;2023-04-21T06:55:08;94258.16;;;12.62;84.29
6464;BME280;3265;42.694;23.282;2023-04-21T06:57:35;94272.03;;;12.68;84.57
6464;BME280;3265;42.694;23.282;2023-04-21T07:00:02;94270.97;;;12.64;84.50
6464;BME280;3265;42.694;23.282;2023-04-21T07:02:30;94267.06;;;12.66;84.55
6464;BME280;3265;42.694;23.282;2023-04-21T07:04:56;94262.94;;;12.70;84.97
6464;BME280;3265;42.694;23.282;2023-04-21T07:07:25;94258.94;;;12.63;85.59
6464;BME280;3265;42.694;23.282;2023-04-21T07:09:52;94267.59;;;12.46;86.96
6464;BME280;3265;42.694;23.282;2023-04-21T07:12:19;94265.59;;;12.53;86.99
6464;BME280;3265;42.694;23.282;2023-04-21T07:14:46;94258.56;;;12.54;86.62
6464;BME280;3265;42.694;23.282;2023-04-21T07:17:13;94262.56;;;12.62;86.54
6464;BME280;3265;42.694;23.282;2023-04-21T07:19:39;94253.38;;;12.76;86.54
6464;BME280;3265;42.694;23.282;2023-04-21T07:22:06;94265.72;;;13.02;85.11
6464;BME280;3265;42.694;23.282;2023-04-21T07:24:34;94266.91;;;13.11;83.72
6464;BME280;3265;42.694;23.282;2023-04-21T07:27:02;94263.31;;;13.17;82.67
6464;BME280;3265;42.694;23.282;2023-04-21T07:29:29;94265.81;;;13.29;82.83
6464;BME280;3265;42.694;23.282;2023-04-21T07:31:58;94270.50;;;13.27;83.20
6464;BME280;3265;42.694;23.282;2023-04-21T07:34:25;94261.91;;;13.31;82.44
6464;BME280;3265;42.694;23.282;2023-04-21T07:36:56;94259.63;;;13.35;82.80
6464;BME280;3265;42.694;23.282;2023-04-21T07:39:23;94261.13;;;13.31;82.09
6464;BME280;3265;42.694;23.282;2023-04-21T07:41:51;94254.44;;;13.40;82.31
6464;BME280;3265;42.694;23.282;2023-04-21T07:44:19;94258.06;;;13.60;81.50
6464;BME280;3265;42.694;23.282;2023-04-21T07:46:46;94267.59;;;13.77;80.85
6464;BME280;3265;42.694;23.282;2023-04-21T07:49:13;94261.97;;;13.85;81.20
6464;BME280;3265;42.694;23.282;2023-04-21T07:51:39;94260.91;;;13.86;80.87
6464;BME280;3265;42.694;23.282;2023-04-21T07:54:06;94269.72;;;13.80;80.62
6464;BME280;3265;42.694;23.282;2023-04-21T07:56:33;94267.13;;;13.80;80.80
6464;BME280;3265;42.694;23.282;2023-04-21T07:59:01;94270.66;;;13.95;80.76
6464;BME280;3265;42.694;23.282;2023-04-21T08:01:28;94262.56;;;13.97;80.01
6464;BME280;3265;42.694;23.282;2023-04-21T08:03:55;94272.88;;;14.08;78.96
6464;BME280;3265;42.694;23.282;2023-04-21T08:06:21;94261.34;;;14.04;78.34
6464;BME280;3265;42.694;23.282;2023-04-21T08:08:48;94263.63;;;13.96;78.39
6464;BME280;3265;42.694;23.282;2023-04-21T08:11:15;94270.66;;;13.95;78.48
6464;BME280;3265;42.694;23.282;2023-04-21T08:13:42;94273.94;;;13.81;79.02
6464;BME280;3265;42.694;23.282;2023-04-21T08:16:10;94265.91;;;13.87;79.66
6464;BME280;3265;42.694;23.282;2023-04-21T08:18:37;94261.59;;;14.03;78.38
6464;BME280;3265;42.694;23.282;2023-04-21T08:21:04;94271.63;;;14.16;78.52
6464;BME280;3265;42.694;23.282;2023-04-21T08:23:31;94262.81;;;14.22;78.54
6464;BME280;3265;42.694;23.282;2023-04-21T08:25:58;94262.53;;;14.23;77.49
6464;BME280;3265;42.694;23.282;2023-04-21T08:28:25;94257.69;;;14.37;77.50
6464;BME280;3265;42.694;23.282;2023-04-21T08:30:52;94264.31;;;14.45;75.85
6464;BME280;3265;42.694;23.282;2023-04-21T08:33:20;94251.75;;;14.47;76.74
6464;BME280;3265;42.694;23.282;2023-04-21T08:35:47;94257.63;;;14.64;75.74
6464;BME280;3265;42.694;23.282;2023-04-21T08:38:21;94257.72;;;14.79;75.60
6464;BME280;3265;42.694;23.282;2023-04-21T08:40:48;94263.72;;;14.74;74.50
6464;BME280;3265;42.694;23.282;2023-04-21T08:43:15;94270.72;;;14.69;75.59
6464;BME280;3265;42.694;23.282;2023-04-21T08:45:42;94269.66;;;14.60;75.22
6464;BME280;3265;42.694;23.282;2023-04-21T08:48:15;94266.53;;;14.63;75.45
6464;BME280;3265;42.694;23.282;2023-04-21T08:50:47;94261.81;;;14.65;76.36
6464;BME280;3265;42.694;23.282;2023-04-21T08:53:15;94252.47;;;14.74;75.63
6464;BME280;3265;42.694;23.282;2023-04-21T08:55:42;94253.31;;;14.90;75.97
6464;BME280;3265;42.694;23.282;2023-04-21T08:58:08;94257.53;;;14.96;75.21
6464;BME280;3265;42.694;23.282;2023-04-21T09:00:36;94247.44;;;15.14;74.51
6464;BME280;3265;42.694;23.282;2023-04-21T09:03:03;94238.34;;;15.32;73.98
6464;BME280;3265;42.694;23.282;2023-04-21T09:05:33;94233.63;;;15.29;72.26
6464;BME280;3265;42.694;23.282;2023-04-21T09:08:10;94240.25;;;15.47;72.22
6464;BME280;3265;42.694;23.282;2023-04-21T09:10:43;94232.03;;;15.33;72.21
6464;BME280;3265;42.694;23.282;2023-04-21T09:13:11;94230.50;;;15.42;72.00
6464;BME280;3265;42.694;23.282;2023-04-21T09:15:40;94237.63;;;15.52;72.01
6464;BME280;3265;42.694;23.282;2023-04-21T09:18:12;94221.69;;;15.63;70.55
6464;BME280;3265;42.694;23.282;2023-04-21T09:20:40;94222.72;;;15.57;70.88
6464;BME280;3265;42.694;23.282;2023-04-21T09:23:09;94223.75;;;15.61;70.58
6464;BME280;3265;42.694;23.282;2023-04-21T09:25:38;94227.19;;;15.72;70.64
6464;BME280;3265;42.694;23.282;2023-04-21T09:28:06;94229.81;;;15.67;70.03
6464;BME280;3265;42.694;23.282;2023-04-21T09:30:34;94220.41;;;15.81;70.64
6464;BME280;3265;42.694;23.282;2023-04-21T09:33:01;94203.88;;;15.80;69.92
6464;BME280;3265;42.694;23.282;2023-04-21T09:35:29;94204.94;;;15.95;69.81
6464;BME280;3265;42.694;23.282;2023-04-21T09:37:59;94212.81;;;16.15;68.89
6464;BME280;3265;42.694;23.282;2023-04-21T09:40:31;94224.84;;;16.31;68.81
6464;BME280;3265;42.694;23.282;2023-04-21T09:42:59;94208.63;;;16.19;68.40
6464;BME280;3265;42.694;23.282;2023-04-21T09:45:26;94222.00;;;16.27;68.76
6464;BME280;3265;42.694;23.282;2023-04-21T09:47:55;94198.91;;;16.29;68.69
6464;BME280;3265;42.694;23.282;2023-04-21T09:50:26;94220.91;;;16.33;67.01
6464;BME280;3265;42.694;23.282;2023-04-21T09:52:54;94191.84;;;16.15;64.58
6464;BME280;3265;42.694;23.282;2023-04-21T09:55:25;94218.06;;;16.15;64.57
6464;BME280;3265;42.694;23.282;2023-04-21T09:57:58;94209.66;;;16.18;64.61
6464;BME280;3265;42.694;23.282;2023-04-21T10:00:26;94200.22;;;16.12;65.04
6464;BME280;3265;42.694;23.282;2023-04-21T10:02:54;94214.88;;;16.28;64.99
6464;BME280;3265;42.694;23.282;2023-04-21T10:05:23;94196.78;;;16.31;64.29
6464;BME280;3265;42.694;23.282;2023-04-21T10:07:50;94203.88;;;16.61;64.02
6464;BME280;3265;42.694;23.282;2023-04-21T10:10:22;94211.41;;;16.88;64.29
6464;BME280;3265;42.694;23.282;2023-04-21T10:12:50;94207.22;;;16.87;65.04
6464;BME280;3265;42.694;23.282;2023-04-21T10:15:30;94205.38;;;16.87;65.34
6464;BME280;3265;42.694;23.282;2023-04-21T10:18:14;94205.91;;;16.84;66.21
6464;BME280;3265;42.694;23.282;2023-04-21T10:20:52;94199.34;;;16.77;66.00
6464;BME280;3265;42.694;23.282;2023-04-21T10:23:30;94193.38;;;16.61;65.68
6464;BME280;3265;42.694;23.282;2023-04-21T10:26:03;94198.09;;;16.54;66.71
6464;BME280;3265;42.694;23.282;2023-04-21T10:28:45;94198.34;;;16.42;66.89
6464;BME280;3265;42.694;23.282;2023-04-21T10:31:22;94191.53;;;16.57;66.79
6464;BME280;3265;42.694;23.282;2023-04-21T10:34:16;94201.22;;;16.76;66.50
6464;BME280;3265;42.694;23.282;2023-04-21T10:39:55;94202.19;;;16.95;65.15
6464;BME280;3265;42.694;23.282;2023-04-21T10:42:29;94207.22;;;16.87;64.46
6464;BME280;3265;42.694;23.282;2023-04-21T10:45:04;94203.81;;;16.71;65.27
6464;BME280;3265;42.694;23.282;2023-04-21T10:47:40;94194.63;;;16.74;65.23
6464;BME280;3265;42.694;23.282;2023-04-21T10:50:16;94197.75;;;16.91;64.08
6464;BME280;3265;42.694;23.282;2023-04-21T10:52:47;94195.59;;;17.03;62.93
6464;BME280;3265;42.694;23.282;2023-04-21T10:55:17;94195.94;;;17.45;62.81
6464;BME280;3265;42.694;23.282;2023-04-21T10:57:46;94200.97;;;17.86;62.13
6464;BME280;3265;42.694;23.282;2023-04-21T11:00:18;94194.47;;;18.12;60.00
6464;BME280;3265;42.694;23.282;2023-04-21T11:02:57;94202.81;;;18.48;58.53
6464;BME280;3265;42.694;23.282;2023-04-21T11:05:34;94199.09;;;18.54;56.31
6464;BME280;3265;42.694;23.282;2023-04-21T11:08:04;94186.78;;;18.49;56.32
6464;BME280;3265;42.694;23.282;2023-04-21T11:10:44;94193.28;;;18.57;57.80
6464;BME280;3265;42.694;23.282;2023-04-21T11:13:12;94188.59;;;18.78;58.03
6464;BME280;3265;42.694;23.282;2023-04-21T11:15:39;94189.09;;;19.03;57.59
6464;BME280;3265;42.694;23.282;2023-04-21T11:18:07;94182.41;;;19.11;56.36
6464;BME280;3265;42.694;23.282;2023-04-21T11:20:38;94179.59;;;19.26;56.04
6464;BME280;3265;42.694;23.282;2023-04-21T11:23:07;94192.53;;;19.46;54.94
6464;BME280;3265;42.694;23.282;2023-04-21T11:25:44;94191.97;;;19.49;52.45
6464;BME280;3265;42.694;23.282;2023-04-21T11:28:11;94186.44;;;19.51;49.98
6464;BME280;3265;42.694;23.282;2023-04-21T11:30:46;94185.13;;;19.67;54.12
6464;BME280;3265;42.694;23.282;2023-04-21T11:33:14;94197.38;;;19.95;55.18
6464;BME280;3265;42.694;23.282;2023-04-21T11:35:42;94185.13;;;20.18;53.60
6464;BME280;3265;42.694;23.282;2023-04-21T11:38:09;94178.69;;;20.10;52.12
6464;BME280;3265;42.694;23.282;2023-04-21T11:40:46;94196.75;;;19.85;51.95
6464;BME280;3265;42.694;23.282;2023-04-21T11:43:13;94207.25;;;20.22;52.37
6464;BME280;3265;42.694;23.282;2023-04-21T11:45:40;94203.59;;;20.69;52.17
6464;BME280;3265;42.694;23.282;2023-04-21T11:48:15;94206.72;;;20.98;49.98
6464;BME280;3265;42.694;23.282;2023-04-21T11:50:46;94194.59;;;20.97;49.27
6464;BME280;3265;42.694;23.282;2023-04-21T11:53:13;94207.94;;;20.92;49.28
6464;BME280;3265;42.694;23.282;2023-04-21T11:55:41;94201.38;;;20.44;48.32
6464;BME280;3265;42.694;23.282;2023-04-21T11:58:08;94202.16;;;20.44;49.02
6464;BME280;3265;42.694;23.282;2023-04-21T12:00:36;94204.97;;;20.15;48.45
6464;BME280;3265;42.694;23.282;2023-04-21T12:03:07;94204.44;;;19.81;48.03
6464;BME280;3265;42.694;23.282;2023-04-21T12:05:36;94219.56;;;19.75;48.66
6464;BME280;3265;42.694;23.282;2023-04-21T12:08:03;94209.22;;;19.42;48.68
6464;BME280;3265;42.694;23.282;2023-04-21T12:10:31;94197.50;;;19.05;48.90
6464;BME280;3265;42.694;23.282;2023-04-21T12:12:58;94206.34;;;18.91;50.73
6464;BME280;3265;42.694;23.282;2023-04-21T12:15:25;94213.44;;;18.95;51.10
6464;BME280;3265;42.694;23.282;2023-04-21T12:17:55;94203.03;;;18.56;51.19
6464;BME280;3265;42.694;23.282;2023-04-21T12:20:23;94205.72;;;18.46;52.57
6464;BME280;3265;42.694;23.282;2023-04-21T12:22:52;94203.03;;;18.56;52.73
6464;BME280;3265;42.694;23.282;2023-04-21T12:25:20;94199.13;;;19.01;53.35
6464;BME280;3265;42.694;23.282;2023-04-21T12:27:49;94194.81;;;19.53;52.33
6464;BME280;3265;42.694;23.282;2023-04-21T12:30:16;94197.94;;;20.11;51.35
6464;BME280;3265;42.694;23.282;2023-04-21T12:32:43;94210.53;;;20.78;50.49
6464;BME280;3265;42.694;23.282;2023-04-21T12:35:12;94210.63;;;21.69;49.15
6464;BME280;3265;42.694;23.282;2023-04-21T12:37:39;94206.63;;;22.29;44.89
6464;BME280;3265;42.694;23.282;2023-04-21T12:40:19;94214.88;;;21.42;44.23
6464;BME280;3265;42.694;23.282;2023-04-21T12:43:05;94216.25;;;21.13;46.17
6464;BME280;3265;42.694;23.282;2023-04-21T12:45:35;94211.06;;;21.21;47.24
6464;BME280;3265;42.694;23.282;2023-04-21T12:48:08;94208.44;;;21.08;46.77
6464;BME280;3265;42.694;23.282;2023-04-21T12:50:44;94203.13;;;20.94;47.06
6464;BME280;3265;42.694;23.282;2023-04-21T12:53:11;94206.63;;;20.76;48.00
6464;BME280;3265;42.694;23.282;2023-04-21T12:55:39;94196.19;;;20.52;49.28
6464;BME280;3265;42.694;23.282;2023-04-21T12:58:06;94202.81;;;20.36;49.98
6464;BME280;3265;42.694;23.282;2023-04-21T13:00:33;94195.03;;;19.94;50.08
6464;BME280;3265;42.694;23.282;2023-04-21T13:03:00;94194.38;;;19.83;50.90
6464;BME280;3265;42.694;23.282;2023-04-21T13:05:27;94190.13;;;19.68;50.51
6464;BME280;3265;42.694;23.282;2023-04-21T13:07:55;94186.84;;;19.58;50.28
6464;BME280;3265;42.694;23.282;2023-04-21T13:10:22;94183.19;;;19.54;50.47
6464;BME280;3265;42.694;23.282;2023-04-21T13:12:51;94166.81;;;19.14;51.74
6464;BME280;3265;42.694;23.282;2023-04-21T13:15:17;94179.94;;;19.19;51.55
6464;BME280;3265;42.694;23.282;2023-04-21T13:17:44;94177.38;;;19.14;51.28
6464;BME280;3265;42.694;23.282;2023-04-21T13:20:11;94176.72;;;19.04;51.76